DLH407 UKBB-EVRA
Flight info
| Callsign | DLH407 |
|---|---|
| Flight time | N/A |
| Altitude | 38000 |
| Route | KAFEL T731 OKROT M70 TOLPA/N0454F380 DCT LUGUG DCT DISBI M977 SUWGI/N0453F390 M857 BOKSU DCT GUNTA |
| Aircraft | B38M/M-SDE1FGHILORVWXY/HB1 |
Departure
| Time | 2026-05-07 18:08 |
|---|---|
| Airport | Boryspil International Airport (UKBB) |
Arrival
| Time | N/A |
|---|---|
| Airport | Riga International Airport (EVRA) |
| Time | Latitude | Longitude | Altitude | Speed | Heading |
|---|---|---|---|---|---|
| 2026-05-07 17:35 | 50.35195 | 30.89896 | 439 ft | 0 kts | 271° |
| 2026-05-07 17:59 | 50.35194 | 30.89911 | 439 ft | 2 kts | 271° |
| 2026-05-07 17:59 | 50.35198 | 30.89939 | 439 ft | 3 kts | 246° |
| 2026-05-07 17:59 | 50.35209 | 30.89964 | 439 ft | 3 kts | 220° |
| 2026-05-07 17:59 | 50.35227 | 30.89980 | 439 ft | 3 kts | 196° |
| 2026-05-07 18:00 | 50.35241 | 30.89983 | 439 ft | 3 kts | 181° |
| 2026-05-07 18:00 | 50.35242 | 30.89983 | 439 ft | 0 kts | 180° |
| 2026-05-07 18:03 | 50.35226 | 30.89983 | 439 ft | 4 kts | 175° |
| 2026-05-07 18:03 | 50.35201 | 30.90020 | 439 ft | 8 kts | 112° |
| 2026-05-07 18:03 | 50.35192 | 30.90121 | 439 ft | 9 kts | 93° |
| 2026-05-07 18:03 | 50.35190 | 30.90222 | 439 ft | 9 kts | 80° |
| 2026-05-07 18:04 | 50.35248 | 30.90269 | 439 ft | 13 kts | 2° |
| 2026-05-07 18:04 | 50.35355 | 30.90275 | 439 ft | 17 kts | 2° |
| 2026-05-07 18:04 | 50.35491 | 30.90286 | 439 ft | 19 kts | 3° |
| 2026-05-07 18:04 | 50.35629 | 30.90297 | 439 ft | 19 kts | 3° |
| 2026-05-07 18:05 | 50.35765 | 30.90308 | 439 ft | 17 kts | 3° |
| 2026-05-07 18:05 | 50.35885 | 30.90318 | 439 ft | 14 kts | 3° |
| 2026-05-07 18:05 | 50.35989 | 30.90327 | 439 ft | 14 kts | 2° |
| 2026-05-07 18:05 | 50.36075 | 30.90413 | 439 ft | 9 kts | 71° |
| 2026-05-07 18:06 | 50.36076 | 30.90417 | 439 ft | 0 kts | 72° |
| 2026-05-07 18:06 | 50.36077 | 30.90421 | 439 ft | 2 kts | 72° |
| 2026-05-07 18:06 | 50.36083 | 30.90475 | 439 ft | 8 kts | 94° |
| 2026-05-07 18:07 | 50.36053 | 30.90583 | 439 ft | 14 kts | 127° |
| 2026-05-07 18:07 | 50.35991 | 30.90643 | 439 ft | 8 kts | 180° |
| 2026-05-07 18:07 | 50.35986 | 30.90642 | 439 ft | 2 kts | 182° |
| 2026-05-07 18:07 | 50.35773 | 30.90627 | 439 ft | 77 kts | 182° |
| 2026-05-07 18:08 | 50.34904 | 30.90563 | 485 ft | 165 kts | 182° |
| 2026-05-07 18:08 | 50.33712 | 30.90434 | 1693 ft | 164 kts | 184° |
| 2026-05-07 18:08 | 50.32545 | 30.90309 | 2950 ft | 175 kts | 184° |
| 2026-05-07 18:08 | 50.31257 | 30.90199 | 3804 ft | 197 kts | 182° |
| 2026-05-07 18:09 | 50.29801 | 30.90101 | 4639 ft | 221 kts | 182° |
| 2026-05-07 18:09 | 50.28200 | 30.89994 | 5561 ft | 239 kts | 182° |
| 2026-05-07 18:09 | 50.26494 | 30.89880 | 6037 ft | 248 kts | 182° |
| 2026-05-07 18:09 | 50.24747 | 30.89764 | 6908 ft | 255 kts | 182° |
| 2026-05-07 18:10 | 50.22964 | 30.89625 | 8120 ft | 262 kts | 185° |
| 2026-05-07 18:10 | 50.21216 | 30.88591 | 8986 ft | 278 kts | 214° |
| 2026-05-07 18:10 | 50.19963 | 30.86355 | 10092 ft | 283 kts | 238° |
| 2026-05-07 18:10 | 50.19320 | 30.83314 | 10970 ft | 300 kts | 262° |
| 2026-05-07 18:11 | 50.19555 | 30.80057 | 11737 ft | 316 kts | 285° |
| 2026-05-07 18:11 | 50.20143 | 30.76658 | 12512 ft | 332 kts | 284° |
| 2026-05-07 18:11 | 50.20719 | 30.73100 | 13311 ft | 344 kts | 284° |
| 2026-05-07 18:11 | 50.21313 | 30.69450 | 14278 ft | 349 kts | 284° |
| 2026-05-07 18:12 | 50.21917 | 30.65746 | 15223 ft | 354 kts | 284° |
| 2026-05-07 18:12 | 50.22530 | 30.61986 | 16128 ft | 359 kts | 284° |
| 2026-05-07 18:12 | 50.23151 | 30.58168 | 16998 ft | 364 kts | 284° |
| 2026-05-07 18:12 | 50.23778 | 30.54303 | 17832 ft | 369 kts | 284° |
| 2026-05-07 18:13 | 50.24402 | 30.50450 | 18626 ft | 373 kts | 284° |
| 2026-05-07 18:13 | 50.25042 | 30.46490 | 19402 ft | 378 kts | 284° |
| 2026-05-07 18:13 | 50.25686 | 30.42493 | 20152 ft | 382 kts | 284° |
| 2026-05-07 18:13 | 50.26338 | 30.38440 | 20883 ft | 386 kts | 284° |
| 2026-05-07 18:14 | 50.26995 | 30.34341 | 21587 ft | 391 kts | 284° |
| 2026-05-07 18:14 | 50.27657 | 30.30206 | 22274 ft | 395 kts | 284° |
| 2026-05-07 18:14 | 50.28325 | 30.26017 | 22942 ft | 399 kts | 284° |
| 2026-05-07 18:14 | 50.28998 | 30.21791 | 23584 ft | 403 kts | 284° |
| 2026-05-07 18:15 | 50.29676 | 30.17519 | 24208 ft | 407 kts | 284° |
| 2026-05-07 18:15 | 50.30359 | 30.13207 | 24812 ft | 410 kts | 284° |
| 2026-05-07 18:15 | 50.31048 | 30.08849 | 25396 ft | 414 kts | 284° |
| 2026-05-07 18:15 | 50.31740 | 30.04457 | 25963 ft | 418 kts | 284° |
| 2026-05-07 18:16 | 50.32436 | 30.00023 | 26516 ft | 421 kts | 284° |
| 2026-05-07 18:16 | 50.33139 | 29.95539 | 27052 ft | 425 kts | 284° |
| 2026-05-07 18:16 | 50.33843 | 29.91035 | 27570 ft | 428 kts | 284° |
| 2026-05-07 18:16 | 50.34543 | 29.86536 | 28070 ft | 432 kts | 283° |
| 2026-05-07 18:17 | 50.35256 | 29.81954 | 28561 ft | 435 kts | 283° |
| 2026-05-07 18:17 | 50.35972 | 29.77331 | 29040 ft | 438 kts | 283° |
| 2026-05-07 18:17 | 50.36692 | 29.72669 | 29508 ft | 441 kts | 283° |
| 2026-05-07 18:17 | 50.37414 | 29.67983 | 29966 ft | 444 kts | 283° |
| 2026-05-07 18:18 | 50.38138 | 29.63266 | 30410 ft | 447 kts | 283° |
| 2026-05-07 18:18 | 50.38868 | 29.58502 | 30845 ft | 450 kts | 283° |
| 2026-05-07 18:18 | 50.39601 | 29.53701 | 31270 ft | 454 kts | 283° |
| 2026-05-07 18:18 | 50.40335 | 29.48878 | 31688 ft | 456 kts | 283° |
| 2026-05-07 18:19 | 50.41072 | 29.44023 | 32096 ft | 459 kts | 283° |
| 2026-05-07 18:19 | 50.41812 | 29.39135 | 32496 ft | 462 kts | 283° |
| 2026-05-07 18:19 | 50.42552 | 29.34226 | 32891 ft | 465 kts | 283° |
| 2026-05-07 18:19 | 50.43296 | 29.29276 | 33332 ft | 466 kts | 283° |
| 2026-05-07 18:20 | 50.44038 | 29.24327 | 33861 ft | 465 kts | 283° |
| 2026-05-07 18:20 | 50.44774 | 29.19401 | 34376 ft | 464 kts | 283° |
| 2026-05-07 18:20 | 50.45507 | 29.14483 | 34873 ft | 463 kts | 283° |
| 2026-05-07 18:20 | 50.46237 | 29.09566 | 35349 ft | 462 kts | 283° |
| 2026-05-07 18:21 | 50.46953 | 29.04730 | 35801 ft | 461 kts | 283° |
| 2026-05-07 18:21 | 50.47675 | 28.99832 | 36243 ft | 460 kts | 283° |
| 2026-05-07 18:21 | 50.48394 | 28.94944 | 36657 ft | 460 kts | 283° |
| 2026-05-07 18:21 | 50.49112 | 28.90048 | 37046 ft | 459 kts | 283° |
| 2026-05-07 18:22 | 50.49827 | 28.85156 | 37420 ft | 459 kts | 283° |
| 2026-05-07 18:22 | 50.50299 | 28.81919 | 37663 ft | 459 kts | 283° |
| 2026-05-07 18:22 | 50.51253 | 28.75355 | 38001 ft | 463 kts | 283° |
| 2026-05-07 18:23 | 50.52673 | 28.65533 | 38001 ft | 460 kts | 283° |
| 2026-05-07 18:23 | 50.54082 | 28.55722 | 38001 ft | 460 kts | 283° |
| 2026-05-07 18:24 | 50.55483 | 28.45902 | 38001 ft | 460 kts | 282° |
| 2026-05-07 18:24 | 50.56875 | 28.36086 | 38001 ft | 460 kts | 282° |
| 2026-05-07 18:25 | 50.58259 | 28.26256 | 38001 ft | 460 kts | 282° |
| 2026-05-07 18:25 | 50.59628 | 28.16477 | 38000 ft | 460 kts | 282° |
| 2026-05-07 18:26 | 50.60997 | 28.06625 | 38000 ft | 460 kts | 282° |
| 2026-05-07 18:26 | 50.62358 | 27.96766 | 38000 ft | 460 kts | 282° |
| 2026-05-07 18:27 | 50.63710 | 27.86912 | 38001 ft | 460 kts | 282° |
| 2026-05-07 18:27 | 50.65053 | 27.77050 | 38001 ft | 460 kts | 282° |
| 2026-05-07 18:28 | 50.66379 | 27.67251 | 38001 ft | 460 kts | 282° |
| 2026-05-07 18:28 | 50.67708 | 27.57364 | 38001 ft | 460 kts | 282° |
| 2026-05-07 18:29 | 50.69025 | 27.47493 | 38001 ft | 460 kts | 282° |
| 2026-05-07 18:29 | 50.70336 | 27.37606 | 38001 ft | 460 kts | 282° |
| 2026-05-07 18:30 | 50.72049 | 27.27905 | 38000 ft | 460 kts | 286° |
| 2026-05-07 18:30 | 50.73789 | 27.18180 | 37999 ft | 460 kts | 285° |
| 2026-05-07 18:31 | 50.75508 | 27.08448 | 38000 ft | 460 kts | 285° |
| 2026-05-07 18:31 | 50.77219 | 26.98697 | 38000 ft | 460 kts | 285° |
| 2026-05-07 18:32 | 50.78909 | 26.89011 | 38000 ft | 460 kts | 285° |
| 2026-05-07 18:32 | 50.80603 | 26.79252 | 38000 ft | 460 kts | 285° |
| 2026-05-07 18:33 | 50.82290 | 26.69481 | 37999 ft | 460 kts | 285° |
| 2026-05-07 18:33 | 50.83967 | 26.59712 | 37999 ft | 460 kts | 285° |
| 2026-05-07 18:34 | 50.85635 | 26.49939 | 37999 ft | 460 kts | 285° |
| 2026-05-07 18:34 | 50.87296 | 26.40151 | 37999 ft | 460 kts | 285° |
| 2026-05-07 18:35 | 50.88949 | 26.30360 | 37999 ft | 460 kts | 285° |
| 2026-05-07 18:35 | 50.90583 | 26.20623 | 38000 ft | 460 kts | 285° |
| 2026-05-07 18:36 | 50.92220 | 26.10817 | 38000 ft | 460 kts | 284° |
| 2026-05-07 18:36 | 50.93847 | 26.01008 | 38000 ft | 460 kts | 284° |
| 2026-05-07 18:37 | 50.95469 | 25.91176 | 38000 ft | 460 kts | 284° |
| 2026-05-07 18:37 | 50.97079 | 25.81359 | 38000 ft | 460 kts | 284° |
| 2026-05-07 18:38 | 50.98684 | 25.71516 | 38000 ft | 460 kts | 284° |
| 2026-05-07 18:38 | 51.00279 | 25.61679 | 37999 ft | 460 kts | 284° |
| 2026-05-07 18:39 | 51.01858 | 25.51880 | 37999 ft | 460 kts | 284° |
| 2026-05-07 18:39 | 51.03446 | 25.41970 | 37999 ft | 460 kts | 284° |
| 2026-05-07 18:40 | 51.05016 | 25.32110 | 37999 ft | 460 kts | 284° |
| 2026-05-07 18:40 | 51.06567 | 25.22315 | 37999 ft | 460 kts | 284° |
| 2026-05-07 18:41 | 51.08122 | 25.12432 | 37999 ft | 460 kts | 284° |
| 2026-05-07 18:41 | 51.09670 | 25.02539 | 37999 ft | 460 kts | 284° |
| 2026-05-07 18:42 | 51.11206 | 24.92654 | 38000 ft | 460 kts | 284° |
| 2026-05-07 18:42 | 51.12735 | 24.82762 | 38000 ft | 460 kts | 284° |
| 2026-05-07 18:43 | 51.14257 | 24.72851 | 38000 ft | 460 kts | 283° |
| 2026-05-07 18:43 | 51.15759 | 24.63010 | 38000 ft | 460 kts | 283° |
| 2026-05-07 18:44 | 51.17262 | 24.53101 | 38000 ft | 460 kts | 283° |
| 2026-05-07 18:44 | 51.18759 | 24.43176 | 38000 ft | 460 kts | 283° |
| 2026-05-07 18:45 | 51.20247 | 24.33242 | 38000 ft | 460 kts | 283° |
| 2026-05-07 18:45 | 51.21725 | 24.23309 | 37999 ft | 460 kts | 283° |
| 2026-05-07 18:46 | 51.23196 | 24.13369 | 38000 ft | 460 kts | 283° |
| 2026-05-07 18:46 | 51.24660 | 24.03405 | 38000 ft | 460 kts | 283° |
| 2026-05-07 18:47 | 51.26116 | 23.93457 | 37999 ft | 460 kts | 283° |
| 2026-05-07 18:47 | 51.27555 | 23.83566 | 38000 ft | 460 kts | 283° |
| 2026-05-07 18:48 | 51.28995 | 23.73604 | 37999 ft | 460 kts | 283° |
| 2026-05-07 18:48 | 51.30401 | 23.63616 | 38000 ft | 460 kts | 282° |
| 2026-05-07 18:49 | 51.31511 | 23.55229 | 37999 ft | 460 kts | 282° |
| 2026-05-07 18:49 | 51.32833 | 23.45284 | 37999 ft | 460 kts | 282° |
| 2026-05-07 18:50 | 51.34160 | 23.35249 | 38000 ft | 460 kts | 282° |
| 2026-05-07 18:50 | 51.35478 | 23.25218 | 38000 ft | 460 kts | 282° |
| 2026-05-07 18:51 | 51.36806 | 23.15207 | 37992 ft | 460 kts | 285° |
| 2026-05-07 18:51 | 51.38026 | 23.10486 | 38004 ft | 461 kts | 300° |
| 2026-05-07 18:51 | 51.39956 | 23.06390 | 37997 ft | 460 kts | 314° |
| 2026-05-07 18:51 | 51.42460 | 23.03196 | 37999 ft | 460 kts | 328° |
| 2026-05-07 18:52 | 51.45366 | 23.01072 | 37993 ft | 460 kts | 343° |
| 2026-05-07 18:52 | 51.48515 | 23.00203 | 38007 ft | 460 kts | 356° |
| 2026-05-07 18:52 | 51.51712 | 22.99963 | 37999 ft | 460 kts | 358° |
| 2026-05-07 18:53 | 51.58075 | 22.99649 | 37999 ft | 460 kts | 358° |
| 2026-05-07 18:53 | 51.64481 | 22.99401 | 37999 ft | 460 kts | 359° |
| 2026-05-07 18:54 | 51.70891 | 22.99160 | 38000 ft | 460 kts | 359° |
| 2026-05-07 18:54 | 51.77289 | 22.98919 | 38000 ft | 460 kts | 359° |
| 2026-05-07 18:55 | 51.83709 | 22.98677 | 38000 ft | 460 kts | 359° |
| 2026-05-07 18:55 | 51.90119 | 22.98434 | 38000 ft | 460 kts | 359° |
| 2026-05-07 18:56 | 51.96480 | 22.98192 | 38000 ft | 460 kts | 359° |
| 2026-05-07 18:56 | 52.02921 | 22.97947 | 37999 ft | 460 kts | 359° |
| 2026-05-07 18:57 | 52.09290 | 22.97704 | 37999 ft | 460 kts | 359° |
| 2026-05-07 18:57 | 52.15709 | 22.97458 | 37999 ft | 460 kts | 359° |
| 2026-05-07 18:58 | 52.22121 | 22.97211 | 37999 ft | 460 kts | 359° |
| 2026-05-07 18:58 | 52.28519 | 22.96964 | 37999 ft | 460 kts | 359° |
| 2026-05-07 18:59 | 52.34925 | 22.96716 | 37999 ft | 460 kts | 359° |
| 2026-05-07 18:59 | 52.41327 | 22.96467 | 38000 ft | 460 kts | 359° |
| 2026-05-07 19:00 | 52.47696 | 22.96218 | 38000 ft | 460 kts | 359° |
| 2026-05-07 19:00 | 52.54098 | 22.95965 | 38000 ft | 460 kts | 359° |
| 2026-05-07 19:01 | 52.60500 | 22.95711 | 38000 ft | 460 kts | 359° |
| 2026-05-07 19:01 | 52.66911 | 22.95456 | 37999 ft | 460 kts | 359° |
| 2026-05-07 19:02 | 52.73319 | 22.95201 | 37999 ft | 460 kts | 359° |
| 2026-05-07 19:02 | 52.79721 | 22.94944 | 37999 ft | 460 kts | 359° |
| 2026-05-07 19:03 | 52.86128 | 22.94687 | 37999 ft | 460 kts | 359° |
| 2026-05-07 19:03 | 52.92539 | 22.94429 | 38000 ft | 460 kts | 359° |
| 2026-05-07 19:04 | 52.98951 | 22.94168 | 38000 ft | 460 kts | 359° |
| 2026-05-07 19:04 | 53.05322 | 22.93907 | 38000 ft | 460 kts | 358° |
| 2026-05-07 19:05 | 53.11729 | 22.93645 | 38000 ft | 460 kts | 358° |
| 2026-05-07 19:05 | 53.18142 | 22.93382 | 37999 ft | 460 kts | 358° |
| 2026-05-07 19:06 | 53.24551 | 22.93118 | 37999 ft | 460 kts | 358° |
| 2026-05-07 19:06 | 53.34128 | 22.92752 | 38000 ft | 460 kts | 359° |
| 2026-05-07 19:07 | 53.40532 | 22.92516 | 38000 ft | 460 kts | 359° |
| 2026-05-07 19:07 | 53.46950 | 22.92279 | 38000 ft | 460 kts | 359° |
| 2026-05-07 19:08 | 53.53358 | 22.92042 | 38000 ft | 460 kts | 359° |
| 2026-05-07 19:08 | 53.59766 | 22.91804 | 38000 ft | 460 kts | 359° |
| 2026-05-07 19:09 | 53.66172 | 22.91565 | 38000 ft | 460 kts | 359° |
| 2026-05-07 19:09 | 53.72572 | 22.91326 | 37999 ft | 460 kts | 359° |
| 2026-05-07 19:10 | 53.78979 | 22.91086 | 37999 ft | 460 kts | 359° |
| 2026-05-07 19:10 | 53.85365 | 22.90845 | 37999 ft | 460 kts | 359° |
| 2026-05-07 19:11 | 53.91763 | 22.90604 | 37999 ft | 460 kts | 359° |
| 2026-05-07 19:11 | 53.98174 | 22.90361 | 37999 ft | 460 kts | 359° |
| 2026-05-07 19:12 | 54.04591 | 22.90158 | 37991 ft | 461 kts | 2° |
| 2026-05-07 19:12 | 54.07741 | 22.91076 | 38007 ft | 461 kts | 16° |
| 2026-05-07 19:12 | 54.10781 | 22.92790 | 38001 ft | 460 kts | 19° |
| 2026-05-07 19:13 | 54.16752 | 22.96578 | 38000 ft | 460 kts | 21° |
| 2026-05-07 19:13 | 54.22721 | 23.00532 | 38000 ft | 460 kts | 21° |
| 2026-05-07 19:14 | 54.28698 | 23.04537 | 38000 ft | 460 kts | 21° |
| 2026-05-07 19:14 | 54.34892 | 23.07219 | 37997 ft | 460 kts | 11° |
| 2026-05-07 19:15 | 54.41201 | 23.09268 | 37999 ft | 460 kts | 11° |
| 2026-05-07 19:15 | 54.47501 | 23.11300 | 37999 ft | 460 kts | 11° |
| 2026-05-07 19:16 | 54.53757 | 23.13322 | 37999 ft | 460 kts | 11° |
| 2026-05-07 19:16 | 54.60056 | 23.15364 | 37999 ft | 460 kts | 11° |
| 2026-05-07 19:17 | 54.66354 | 23.17413 | 38000 ft | 460 kts | 11° |
| 2026-05-07 19:17 | 54.72653 | 23.19468 | 38000 ft | 460 kts | 11° |
| 2026-05-07 19:18 | 54.78952 | 23.21530 | 38000 ft | 460 kts | 11° |
| 2026-05-07 19:18 | 54.85256 | 23.23600 | 37999 ft | 460 kts | 11° |
| 2026-05-07 19:19 | 54.91516 | 23.25662 | 38000 ft | 460 kts | 11° |
| 2026-05-07 19:19 | 54.97813 | 23.27743 | 38000 ft | 460 kts | 11° |
| 2026-05-07 19:20 | 55.04106 | 23.29829 | 38000 ft | 460 kts | 11° |
| 2026-05-07 19:20 | 55.10397 | 23.31921 | 38000 ft | 460 kts | 11° |
| 2026-05-07 19:21 | 55.16699 | 23.34024 | 38000 ft | 460 kts | 11° |